sensor_id;sensor_type;location;lat;lon;timestamp;P1;durP1;ratioP1;P2;durP2;ratioP2
19617;SDS011;9956;51.006;13.670;2023-10-08T00:02:38;6.15;;;3.97;;
19617;SDS011;9956;51.006;13.670;2023-10-08T00:07:39;7.65;;;3.80;;
19617;SDS011;9956;51.006;13.670;2023-10-08T00:12:42;8.05;;;4.22;;
19617;SDS011;9956;51.006;13.670;2023-10-08T00:17:47;8.30;;;4.03;;
19617;SDS011;9956;51.006;13.670;2023-10-08T00:22:49;7.07;;;3.88;;
19617;SDS011;9956;51.006;13.670;2023-10-08T00:27:49;11.30;;;3.80;;
19617;SDS011;9956;51.006;13.670;2023-10-08T00:32:51;8.25;;;4.00;;
19617;SDS011;9956;51.006;13.670;2023-10-08T00:37:52;8.32;;;3.92;;
19617;SDS011;9956;51.006;13.670;2023-10-08T00:42:54;6.55;;;4.43;;
19617;SDS011;9956;51.006;13.670;2023-10-08T00:47:56;7.93;;;4.43;;
19617;SDS011;9956;51.006;13.670;2023-10-08T00:52:58;6.60;;;4.50;;
19617;SDS011;9956;51.006;13.670;2023-10-08T00:58:02;8.85;;;4.78;;
19617;SDS011;9956;51.006;13.670;2023-10-08T01:03:11;8.20;;;4.70;;
19617;SDS011;9956;51.006;13.670;2023-10-08T01:08:15;8.23;;;4.43;;
19617;SDS011;9956;51.006;13.670;2023-10-08T01:13:24;7.75;;;3.80;;
19617;SDS011;9956;51.006;13.670;2023-10-08T01:18:26;9.57;;;4.75;;
19617;SDS011;9956;51.006;13.670;2023-10-08T01:23:33;10.20;;;4.97;;
19617;SDS011;9956;51.006;13.670;2023-10-08T01:28:33;10.98;;;4.72;;
19617;SDS011;9956;51.006;13.670;2023-10-08T01:33:34;7.22;;;5.05;;
19617;SDS011;9956;51.006;13.670;2023-10-08T01:38:38;13.88;;;5.85;;
19617;SDS011;9956;51.006;13.670;2023-10-08T01:43:41;11.00;;;4.80;;
19617;SDS011;9956;51.006;13.670;2023-10-08T01:48:42;8.60;;;5.18;;
19617;SDS011;9956;51.006;13.670;2023-10-08T01:53:44;7.57;;;5.40;;
19617;SDS011;9956;51.006;13.670;2023-10-08T01:58:45;8.80;;;6.30;;
19617;SDS011;9956;51.006;13.670;2023-10-08T02:03:46;8.48;;;6.63;;
19617;SDS011;9956;51.006;13.670;2023-10-08T02:08:47;6.95;;;6.30;;
19617;SDS011;9956;51.006;13.670;2023-10-08T02:13:48;2.72;;;2.28;;
19617;SDS011;9956;51.006;13.670;2023-10-08T02:18:48;1.42;;;0.80;;
19617;SDS011;9956;51.006;13.670;2023-10-08T02:23:51;1.15;;;0.30;;
19617;SDS011;9956;51.006;13.670;2023-10-08T02:28:52;0.93;;;0.30;;
19617;SDS011;9956;51.006;13.670;2023-10-08T02:33:54;0.20;;;0.20;;
19617;SDS011;9956;51.006;13.670;2023-10-08T02:38:54;0.10;;;0.10;;
19617;SDS011;9956;51.006;13.670;2023-10-08T02:43:55;0.10;;;0.10;;
19617;SDS011;9956;51.006;13.670;2023-10-08T02:48:59;0.30;;;0.25;;
19617;SDS011;9956;51.006;13.670;2023-10-08T02:54:03;0.38;;;0.20;;
19617;SDS011;9956;51.006;13.670;2023-10-08T02:59:05;0.52;;;0.20;;
19617;SDS011;9956;51.006;13.670;2023-10-08T03:04:09;0.10;;;0.10;;
19617;SDS011;9956;51.006;13.670;2023-10-08T03:09:20;0.45;;;0.40;;
19617;SDS011;9956;51.006;13.670;2023-10-08T03:14:23;0.50;;;0.40;;
19617;SDS011;9956;51.006;13.670;2023-10-08T03:19:26;0.95;;;0.25;;
19617;SDS011;9956;51.006;13.670;2023-10-08T03:24:27;1.42;;;0.43;;
19617;SDS011;9956;51.006;13.670;2023-10-08T03:29:34;0.40;;;0.40;;
19617;SDS011;9956;51.006;13.670;2023-10-08T03:34:47;1.75;;;0.30;;
19617;SDS011;9956;51.006;13.670;2023-10-08T03:39:50;0.50;;;0.32;;
19617;SDS011;9956;51.006;13.670;2023-10-08T03:45:19;0.15;;;0.15;;
19617;SDS011;9956;51.006;13.670;2023-10-08T03:50:38;0.20;;;0.20;;
19617;SDS011;9956;51.006;13.670;2023-10-08T03:55:49;0.17;;;0.17;;
19617;SDS011;9956;51.006;13.670;2023-10-08T04:00:52;0.30;;;0.30;;
19617;SDS011;9956;51.006;13.670;2023-10-08T04:06:06;1.02;;;0.50;;
19617;SDS011;9956;51.006;13.670;2023-10-08T04:11:14;1.17;;;0.73;;
19617;SDS011;9956;51.006;13.670;2023-10-08T04:16:32;1.05;;;0.50;;
19617;SDS011;9956;51.006;13.670;2023-10-08T04:21:39;4.50;;;1.13;;
19617;SDS011;9956;51.006;13.670;2023-10-08T04:26:42;7.82;;;2.20;;
19617;SDS011;9956;51.006;13.670;2023-10-08T04:31:43;19.15;;;2.65;;
19617;SDS011;9956;51.006;13.670;2023-10-08T04:36:44;11.82;;;3.15;;
19617;SDS011;9956;51.006;13.670;2023-10-08T04:41:46;14.43;;;2.90;;
19617;SDS011;9956;51.006;13.670;2023-10-08T04:46:48;12.85;;;3.45;;
19617;SDS011;9956;51.006;13.670;2023-10-08T04:51:53;11.65;;;3.22;;
19617;SDS011;9956;51.006;13.670;2023-10-08T04:56:57;10.98;;;3.08;;
19617;SDS011;9956;51.006;13.670;2023-10-08T05:02:02;8.75;;;3.15;;
19617;SDS011;9956;51.006;13.670;2023-10-08T05:07:12;9.48;;;3.17;;
19617;SDS011;9956;51.006;13.670;2023-10-08T05:12:31;9.25;;;2.90;;
19617;SDS011;9956;51.006;13.670;2023-10-08T05:17:37;6.45;;;2.22;;
19617;SDS011;9956;51.006;13.670;2023-10-08T05:22:56;10.10;;;2.55;;
19617;SDS011;9956;51.006;13.670;2023-10-08T05:28:16;6.35;;;2.40;;
19617;SDS011;9956;51.006;13.670;2023-10-08T05:33:24;7.22;;;3.22;;
19617;SDS011;9956;51.006;13.670;2023-10-08T05:38:25;6.95;;;2.70;;
19617;SDS011;9956;51.006;13.670;2023-10-08T05:43:38;5.75;;;3.88;;
19617;SDS011;9956;51.006;13.670;2023-10-08T05:48:38;6.88;;;3.63;;
19617;SDS011;9956;51.006;13.670;2023-10-08T05:53:45;7.18;;;2.80;;
19617;SDS011;9956;51.006;13.670;2023-10-08T05:58:49;5.05;;;2.30;;
19617;SDS011;9956;51.006;13.670;2023-10-08T06:04:00;5.55;;;2.40;;
19617;SDS011;9956;51.006;13.670;2023-10-08T06:09:11;8.18;;;2.50;;
19617;SDS011;9956;51.006;13.670;2023-10-08T06:14:12;7.38;;;2.88;;
19617;SDS011;9956;51.006;13.670;2023-10-08T06:19:28;5.80;;;2.85;;
19617;SDS011;9956;51.006;13.670;2023-10-08T06:24:29;5.90;;;2.50;;
19617;SDS011;9956;51.006;13.670;2023-10-08T06:29:29;3.88;;;1.80;;
19617;SDS011;9956;51.006;13.670;2023-10-08T06:34:30;3.35;;;1.40;;
19617;SDS011;9956;51.006;13.670;2023-10-08T06:39:31;4.20;;;1.40;;
19617;SDS011;9956;51.006;13.670;2023-10-08T06:44:47;3.35;;;1.92;;
19617;SDS011;9956;51.006;13.670;2023-10-08T06:49:48;5.32;;;2.15;;
19617;SDS011;9956;51.006;13.670;2023-10-08T06:54:49;4.97;;;1.80;;
19617;SDS011;9956;51.006;13.670;2023-10-08T06:59:53;5.28;;;1.90;;
19617;SDS011;9956;51.006;13.670;2023-10-08T07:04:53;4.50;;;2.30;;
19617;SDS011;9956;51.006;13.670;2023-10-08T07:09:54;5.72;;;3.08;;
19617;SDS011;9956;51.006;13.670;2023-10-08T07:14:57;7.80;;;3.15;;
19617;SDS011;9956;51.006;13.670;2023-10-08T07:19:58;4.47;;;3.13;;
19617;SDS011;9956;51.006;13.670;2023-10-08T07:24:59;2.58;;;1.83;;
19617;SDS011;9956;51.006;13.670;2023-10-08T07:29:59;7.75;;;2.20;;
19617;SDS011;9956;51.006;13.670;2023-10-08T07:35:03;4.05;;;2.47;;
19617;SDS011;9956;51.006;13.670;2023-10-08T07:40:22;3.38;;;1.90;;
19617;SDS011;9956;51.006;13.670;2023-10-08T07:45:27;2.40;;;2.05;;
19617;SDS011;9956;51.006;13.670;2023-10-08T07:50:28;6.43;;;1.55;;
19617;SDS011;9956;51.006;13.670;2023-10-08T07:55:29;2.58;;;1.83;;
19617;SDS011;9956;51.006;13.670;2023-10-08T08:00:34;4.00;;;2.25;;
19617;SDS011;9956;51.006;13.670;2023-10-08T08:05:38;5.03;;;2.10;;
19617;SDS011;9956;51.006;13.670;2023-10-08T08:10:40;3.03;;;1.70;;
19617;SDS011;9956;51.006;13.670;2023-10-08T08:15:43;5.05;;;1.95;;
19617;SDS011;9956;51.006;13.670;2023-10-08T08:20:51;5.47;;;2.00;;
19617;SDS011;9956;51.006;13.670;2023-10-08T08:25:51;4.72;;;2.05;;
19617;SDS011;9956;51.006;13.670;2023-10-08T08:31:07;7.03;;;2.33;;
19617;SDS011;9956;51.006;13.670;2023-10-08T08:36:13;4.50;;;1.95;;
19617;SDS011;9956;51.006;13.670;2023-10-08T08:41:14;3.75;;;2.33;;
19617;SDS011;9956;51.006;13.670;2023-10-08T08:46:18;5.65;;;2.25;;
19617;SDS011;9956;51.006;13.670;2023-10-08T08:51:18;7.00;;;2.25;;
19617;SDS011;9956;51.006;13.670;2023-10-08T08:56:20;8.63;;;3.05;;
19617;SDS011;9956;51.006;13.670;2023-10-08T09:01:21;7.35;;;2.72;;
19617;SDS011;9956;51.006;13.670;2023-10-08T09:06:28;7.70;;;2.97;;
19617;SDS011;9956;51.006;13.670;2023-10-08T09:11:28;6.38;;;2.63;;
19617;SDS011;9956;51.006;13.670;2023-10-08T09:16:28;6.30;;;2.78;;
19617;SDS011;9956;51.006;13.670;2023-10-08T09:21:29;10.00;;;2.95;;
19617;SDS011;9956;51.006;13.670;2023-10-08T09:26:30;9.73;;;3.53;;
19617;SDS011;9956;51.006;13.670;2023-10-08T09:31:31;9.27;;;3.80;;
19617;SDS011;9956;51.006;13.670;2023-10-08T09:36:35;9.85;;;3.15;;
19617;SDS011;9956;51.006;13.670;2023-10-08T09:41:36;10.95;;;3.75;;
19617;SDS011;9956;51.006;13.670;2023-10-08T09:46:38;10.30;;;3.35;;
19617;SDS011;9956;51.006;13.670;2023-10-08T09:51:40;9.20;;;3.53;;
19617;SDS011;9956;51.006;13.670;2023-10-08T09:56:41;6.70;;;3.67;;
19617;SDS011;9956;51.006;13.670;2023-10-08T10:01:46;12.65;;;3.53;;
19617;SDS011;9956;51.006;13.670;2023-10-08T10:06:48;7.43;;;3.20;;
19617;SDS011;9956;51.006;13.670;2023-10-08T10:11:48;5.18;;;2.78;;
19617;SDS011;9956;51.006;13.670;2023-10-08T10:17:12;6.75;;;3.70;;
19617;SDS011;9956;51.006;13.670;2023-10-08T10:22:16;20.27;;;8.77;;
19617;SDS011;9956;51.006;13.670;2023-10-08T10:27:28;8.52;;;3.78;;
19617;SDS011;9956;51.006;13.670;2023-10-08T10:32:29;8.73;;;3.45;;
19617;SDS011;9956;51.006;13.670;2023-10-08T10:37:29;10.30;;;2.90;;
19617;SDS011;9956;51.006;13.670;2023-10-08T10:42:46;9.43;;;2.33;;
19617;SDS011;9956;51.006;13.670;2023-10-08T10:48:18;8.52;;;2.55;;
19617;SDS011;9956;51.006;13.670;2023-10-08T10:53:19;5.18;;;2.30;;
19617;SDS011;9956;51.006;13.670;2023-10-08T10:58:19;4.80;;;2.33;;
19617;SDS011;9956;51.006;13.670;2023-10-08T11:03:24;3.50;;;2.00;;
19617;SDS011;9956;51.006;13.670;2023-10-08T11:08:25;5.35;;;1.85;;
19617;SDS011;9956;51.006;13.670;2023-10-08T11:13:26;4.03;;;1.90;;
19617;SDS011;9956;51.006;13.670;2023-10-08T11:18:29;5.97;;;2.00;;
19617;SDS011;9956;51.006;13.670;2023-10-08T11:23:34;5.10;;;2.00;;
19617;SDS011;9956;51.006;13.670;2023-10-08T11:28:42;6.80;;;3.22;;
19617;SDS011;9956;51.006;13.670;2023-10-08T11:33:43;5.82;;;2.45;;
19617;SDS011;9956;51.006;13.670;2023-10-08T11:38:56;6.20;;;1.90;;
19617;SDS011;9956;51.006;13.670;2023-10-08T11:44:07;4.70;;;1.90;;
19617;SDS011;9956;51.006;13.670;2023-10-08T11:49:13;4.03;;;1.70;;
19617;SDS011;9956;51.006;13.670;2023-10-08T11:54:19;4.07;;;2.20;;
19617;SDS011;9956;51.006;13.670;2023-10-08T11:59:20;8.15;;;2.42;;
19617;SDS011;9956;51.006;13.670;2023-10-08T12:04:20;3.92;;;1.90;;
19617;SDS011;9956;51.006;13.670;2023-10-08T12:09:22;3.72;;;1.80;;
19617;SDS011;9956;51.006;13.670;2023-10-08T12:14:27;3.42;;;1.77;;
19617;SDS011;9956;51.006;13.670;2023-10-08T12:19:30;6.22;;;1.80;;
19617;SDS011;9956;51.006;13.670;2023-10-08T12:24:32;4.93;;;2.00;;
19617;SDS011;9956;51.006;13.670;2023-10-08T12:29:33;4.18;;;2.00;;
19617;SDS011;9956;51.006;13.670;2023-10-08T12:34:35;4.05;;;1.38;;
19617;SDS011;9956;51.006;13.670;2023-10-08T12:39:35;5.50;;;1.65;;
19617;SDS011;9956;51.006;13.670;2023-10-08T12:44:47;3.35;;;1.70;;
19617;SDS011;9956;51.006;13.670;2023-10-08T12:49:48;2.78;;;1.15;;
19617;SDS011;9956;51.006;13.670;2023-10-08T12:54:48;3.28;;;1.50;;
19617;SDS011;9956;51.006;13.670;2023-10-08T12:59:49;3.45;;;1.48;;
19617;SDS011;9956;51.006;13.670;2023-10-08T13:04:51;4.40;;;1.48;;
19617;SDS011;9956;51.006;13.670;2023-10-08T13:09:55;3.05;;;1.48;;
19617;SDS011;9956;51.006;13.670;2023-10-08T13:14:55;4.72;;;1.50;;
19617;SDS011;9956;51.006;13.670;2023-10-08T13:19:55;4.72;;;1.60;;
19617;SDS011;9956;51.006;13.670;2023-10-08T13:24:56;3.03;;;1.80;;
19617;SDS011;9956;51.006;13.670;2023-10-08T13:29:57;4.43;;;1.90;;
19617;SDS011;9956;51.006;13.670;2023-10-08T13:34:58;3.65;;;1.42;;
19617;SDS011;9956;51.006;13.670;2023-10-08T13:40:00;7.60;;;5.28;;
19617;SDS011;9956;51.006;13.670;2023-10-08T13:45:01;6.95;;;2.85;;
19617;SDS011;9956;51.006;13.670;2023-10-08T13:50:08;4.03;;;2.28;;
19617;SDS011;9956;51.006;13.670;2023-10-08T13:55:12;4.13;;;1.42;;
19617;SDS011;9956;51.006;13.670;2023-10-08T14:00:14;5.50;;;3.08;;
19617;SDS011;9956;51.006;13.670;2023-10-08T14:05:16;4.57;;;1.92;;
19617;SDS011;9956;51.006;13.670;2023-10-08T14:10:18;4.22;;;1.98;;
19617;SDS011;9956;51.006;13.670;2023-10-08T14:15:18;3.60;;;1.60;;
19617;SDS011;9956;51.006;13.670;2023-10-08T14:20:19;5.90;;;2.03;;
19617;SDS011;9956;51.006;13.670;2023-10-08T14:25:25;4.95;;;1.80;;
19617;SDS011;9956;51.006;13.670;2023-10-08T14:30:28;4.53;;;2.03;;
19617;SDS011;9956;51.006;13.670;2023-10-08T14:35:30;3.58;;;1.58;;
19617;SDS011;9956;51.006;13.670;2023-10-08T14:40:49;5.20;;;1.63;;
19617;SDS011;9956;51.006;13.670;2023-10-08T14:46:07;3.15;;;1.58;;
19617;SDS011;9956;51.006;13.670;2023-10-08T14:51:09;3.65;;;1.75;;
19617;SDS011;9956;51.006;13.670;2023-10-08T14:56:19;6.45;;;2.08;;
19617;SDS011;9956;51.006;13.670;2023-10-08T15:01:20;4.38;;;1.55;;
19617;SDS011;9956;51.006;13.670;2023-10-08T15:06:23;5.57;;;1.90;;
19617;SDS011;9956;51.006;13.670;2023-10-08T15:11:24;5.68;;;1.95;;
19617;SDS011;9956;51.006;13.670;2023-10-08T15:16:26;4.80;;;2.15;;
19617;SDS011;9956;51.006;13.670;2023-10-08T15:21:27;4.38;;;2.05;;
19617;SDS011;9956;51.006;13.670;2023-10-08T15:26:27;4.43;;;1.80;;
19617;SDS011;9956;51.006;13.670;2023-10-08T15:31:30;4.53;;;1.30;;
19617;SDS011;9956;51.006;13.670;2023-10-08T15:36:30;7.25;;;2.72;;
19617;SDS011;9956;51.006;13.670;2023-10-08T15:41:32;3.85;;;1.90;;
19617;SDS011;9956;51.006;13.670;2023-10-08T15:46:35;4.15;;;1.90;;
19617;SDS011;9956;51.006;13.670;2023-10-08T15:51:36;6.88;;;2.13;;
19617;SDS011;9956;51.006;13.670;2023-10-08T15:56:38;4.72;;;1.88;;
19617;SDS011;9956;51.006;13.670;2023-10-08T16:01:38;6.82;;;1.85;;
19617;SDS011;9956;51.006;13.670;2023-10-08T16:06:39;6.55;;;2.30;;
19617;SDS011;9956;51.006;13.670;2023-10-08T16:11:39;7.95;;;2.45;;
19617;SDS011;9956;51.006;13.670;2023-10-08T16:16:40;5.88;;;2.38;;
19617;SDS011;9956;51.006;13.670;2023-10-08T16:21:40;5.63;;;2.15;;
19617;SDS011;9956;51.006;13.670;2023-10-08T16:26:41;6.97;;;2.30;;
19617;SDS011;9956;51.006;13.670;2023-10-08T16:31:42;5.07;;;2.42;;
19617;SDS011;9956;51.006;13.670;2023-10-08T16:36:43;8.45;;;7.25;;
19617;SDS011;9956;51.006;13.670;2023-10-08T16:41:45;6.75;;;2.20;;
19617;SDS011;9956;51.006;13.670;2023-10-08T16:46:46;7.97;;;3.50;;
19617;SDS011;9956;51.006;13.670;2023-10-08T16:51:47;9.00;;;6.00;;
19617;SDS011;9956;51.006;13.670;2023-10-08T16:56:47;8.90;;;4.75;;
19617;SDS011;9956;51.006;13.670;2023-10-08T17:01:48;7.43;;;4.30;;
19617;SDS011;9956;51.006;13.670;2023-10-08T17:06:50;9.98;;;4.80;;
19617;SDS011;9956;51.006;13.670;2023-10-08T17:11:51;7.00;;;4.20;;
19617;SDS011;9956;51.006;13.670;2023-10-08T17:16:52;9.13;;;4.05;;
19617;SDS011;9956;51.006;13.670;2023-10-08T17:21:53;6.93;;;4.80;;
19617;SDS011;9956;51.006;13.670;2023-10-08T17:26:53;9.35;;;4.60;;
19617;SDS011;9956;51.006;13.670;2023-10-08T17:31:56;6.68;;;4.10;;
19617;SDS011;9956;51.006;13.670;2023-10-08T17:36:56;5.78;;;3.78;;
19617;SDS011;9956;51.006;13.670;2023-10-08T17:41:58;6.03;;;3.90;;
19617;SDS011;9956;51.006;13.670;2023-10-08T17:46:58;5.75;;;3.42;;
19617;SDS011;9956;51.006;13.670;2023-10-08T17:51:59;6.45;;;4.35;;
19617;SDS011;9956;51.006;13.670;2023-10-08T17:56:59;6.20;;;4.95;;
19617;SDS011;9956;51.006;13.670;2023-10-08T18:02:00;6.38;;;3.95;;
19617;SDS011;9956;51.006;13.670;2023-10-08T18:07:00;9.05;;;4.40;;
19617;SDS011;9956;51.006;13.670;2023-10-08T18:12:00;6.40;;;4.25;;
19617;SDS011;9956;51.006;13.670;2023-10-08T18:17:01;6.30;;;4.15;;
19617;SDS011;9956;51.006;13.670;2023-10-08T18:22:02;8.05;;;4.35;;
19617;SDS011;9956;51.006;13.670;2023-10-08T18:27:03;7.50;;;4.93;;
19617;SDS011;9956;51.006;13.670;2023-10-08T18:32:03;6.95;;;4.78;;
19617;SDS011;9956;51.006;13.670;2023-10-08T18:37:05;7.28;;;4.97;;
19617;SDS011;9956;51.006;13.670;2023-10-08T18:42:06;5.78;;;3.97;;
19617;SDS011;9956;51.006;13.670;2023-10-08T18:47:08;6.72;;;5.07;;
19617;SDS011;9956;51.006;13.670;2023-10-08T18:52:10;7.22;;;4.28;;
19617;SDS011;9956;51.006;13.670;2023-10-08T18:57:12;6.13;;;3.95;;
19617;SDS011;9956;51.006;13.670;2023-10-08T19:02:12;6.75;;;3.55;;
19617;SDS011;9956;51.006;13.670;2023-10-08T19:07:14;6.28;;;3.40;;
19617;SDS011;9956;51.006;13.670;2023-10-08T19:12:14;6.20;;;3.10;;
19617;SDS011;9956;51.006;13.670;2023-10-08T19:17:16;6.22;;;3.20;;
19617;SDS011;9956;51.006;13.670;2023-10-08T19:22:17;5.70;;;3.97;;
19617;SDS011;9956;51.006;13.670;2023-10-08T19:27:17;6.70;;;4.35;;
19617;SDS011;9956;51.006;13.670;2023-10-08T19:32:19;7.75;;;6.05;;
19617;SDS011;9956;51.006;13.670;2023-10-08T19:37:20;7.13;;;4.00;;
19617;SDS011;9956;51.006;13.670;2023-10-08T19:42:21;6.20;;;4.35;;
19617;SDS011;9956;51.006;13.670;2023-10-08T19:47:23;8.60;;;4.22;;
19617;SDS011;9956;51.006;13.670;2023-10-08T19:52:24;4.63;;;3.45;;
19617;SDS011;9956;51.006;13.670;2023-10-08T19:57:25;6.25;;;3.83;;
19617;SDS011;9956;51.006;13.670;2023-10-08T20:02:26;6.15;;;3.85;;
19617;SDS011;9956;51.006;13.670;2023-10-08T20:07:28;5.50;;;3.95;;
19617;SDS011;9956;51.006;13.670;2023-10-08T20:12:28;6.78;;;4.00;;
19617;SDS011;9956;51.006;13.670;2023-10-08T20:17:29;6.20;;;4.68;;
19617;SDS011;9956;51.006;13.670;2023-10-08T20:22:29;7.75;;;4.43;;
19617;SDS011;9956;51.006;13.670;2023-10-08T20:27:29;10.43;;;5.32;;
19617;SDS011;9956;51.006;13.670;2023-10-08T20:32:31;6.78;;;5.35;;
19617;SDS011;9956;51.006;13.670;2023-10-08T20:37:34;9.23;;;4.97;;
19617;SDS011;9956;51.006;13.670;2023-10-08T20:42:39;4.53;;;4.13;;
19617;SDS011;9956;51.006;13.670;2023-10-08T20:47:43;7.65;;;4.95;;
19617;SDS011;9956;51.006;13.670;2023-10-08T20:52:51;8.45;;;4.93;;
19617;SDS011;9956;51.006;13.670;2023-10-08T20:57:52;8.10;;;4.25;;
19617;SDS011;9956;51.006;13.670;2023-10-08T21:02:55;5.88;;;4.43;;
19617;SDS011;9956;51.006;13.670;2023-10-08T21:07:56;5.65;;;4.40;;
19617;SDS011;9956;51.006;13.670;2023-10-08T21:12:57;7.55;;;4.32;;
19617;SDS011;9956;51.006;13.670;2023-10-08T21:17:57;7.72;;;4.32;;
19617;SDS011;9956;51.006;13.670;2023-10-08T21:22:58;10.07;;;5.10;;
19617;SDS011;9956;51.006;13.670;2023-10-08T21:28:00;6.13;;;4.47;;
19617;SDS011;9956;51.006;13.670;2023-10-08T21:33:01;8.80;;;5.20;;
19617;SDS011;9956;51.006;13.670;2023-10-08T21:38:06;6.68;;;5.10;;
19617;SDS011;9956;51.006;13.670;2023-10-08T21:43:10;7.97;;;4.70;;
19617;SDS011;9956;51.006;13.670;2023-10-08T21:48:10;5.47;;;4.72;;
19617;SDS011;9956;51.006;13.670;2023-10-08T21:53:11;5.95;;;4.22;;
19617;SDS011;9956;51.006;13.670;2023-10-08T21:58:12;5.60;;;4.47;;
19617;SDS011;9956;51.006;13.670;2023-10-08T22:03:13;5.35;;;4.07;;
19617;SDS011;9956;51.006;13.670;2023-10-08T22:08:15;7.00;;;3.83;;
19617;SDS011;9956;51.006;13.670;2023-10-08T22:13:15;7.22;;;4.38;;
19617;SDS011;9956;51.006;13.670;2023-10-08T22:18:17;5.85;;;4.25;;
19617;SDS011;9956;51.006;13.670;2023-10-08T22:23:32;5.70;;;3.78;;
19617;SDS011;9956;51.006;13.670;2023-10-08T22:28:38;6.85;;;3.67;;
19617;SDS011;9956;51.006;13.670;2023-10-08T22:33:42;7.25;;;4.40;;
19617;SDS011;9956;51.006;13.670;2023-10-08T22:38:48;5.53;;;4.18;;
19617;SDS011;9956;51.006;13.670;2023-10-08T22:43:49;6.97;;;4.45;;
19617;SDS011;9956;51.006;13.670;2023-10-08T22:48:54;7.30;;;4.40;;
19617;SDS011;9956;51.006;13.670;2023-10-08T22:54:03;6.70;;;4.18;;
19617;SDS011;9956;51.006;13.670;2023-10-08T22:59:06;7.45;;;4.25;;
19617;SDS011;9956;51.006;13.670;2023-10-08T23:04:11;5.80;;;4.35;;
19617;SDS011;9956;51.006;13.670;2023-10-08T23:09:13;6.68;;;3.88;;
19617;SDS011;9956;51.006;13.670;2023-10-08T23:14:28;5.78;;;2.92;;
19617;SDS011;9956;51.006;13.670;2023-10-08T23:19:29;5.22;;;3.08;;
19617;SDS011;9956;51.006;13.670;2023-10-08T23:24:31;9.32;;;3.42;;
19617;SDS011;9956;51.006;13.670;2023-10-08T23:29:35;5.45;;;3.83;;
19617;SDS011;9956;51.006;13.670;2023-10-08T23:34:39;6.47;;;3.85;;
19617;SDS011;9956;51.006;13.670;2023-10-08T23:39:42;5.72;;;2.97;;
19617;SDS011;9956;51.006;13.670;2023-10-08T23:44:42;4.80;;;3.67;;
19617;SDS011;9956;51.006;13.670;2023-10-08T23:49:48;4.25;;;3.22;;
19617;SDS011;9956;51.006;13.670;2023-10-08T23:54:53;6.88;;;3.00;;
19617;SDS011;9956;51.006;13.670;2023-10-08T23:59:57;7.40;;;3.30;;
